createdAt,value
2023-04-29T00:01:35.284Z,29.33
2023-04-29T00:03:57.185Z,26.93
2023-04-29T00:06:19.151Z,28.90
2023-04-29T00:08:40.959Z,29.40
2023-04-29T00:11:03.419Z,31.73
2023-04-29T00:13:26.084Z,32.07
2023-04-29T00:15:48.082Z,30.97
2023-04-29T00:18:10.572Z,31.73
2023-04-29T00:20:32.812Z,31.07
2023-04-29T00:22:54.427Z,31.33
2023-04-29T00:25:16.992Z,31.00
2023-04-29T00:27:39.521Z,33.97
2023-04-29T00:30:01.166Z,33.30
2023-04-29T00:32:22.972Z,34.40
2023-04-29T00:34:44.688Z,33.73
2023-04-29T00:37:06.440Z,32.23
2023-04-29T00:39:28.156Z,33.20
2023-04-29T00:41:49.977Z,29.77
2023-04-29T00:44:12.488Z,32.53
2023-04-29T00:46:34.876Z,32.93
2023-04-29T00:48:56.856Z,31.03
2023-04-29T00:51:18.607Z,30.73
2023-04-29T00:53:41.762Z,28.13
2023-04-29T00:56:03.753Z,27.97
2023-04-29T00:58:33.107Z,28.07
2023-04-29T01:00:56.465Z,27.03
2023-04-29T01:03:19.630Z,28.97
2023-04-29T01:05:41.712Z,28.33
2023-04-29T01:08:38.860Z,28.37
2023-04-29T01:11:11.058Z,26.00
2023-04-29T01:14:00.577Z,26.43
2023-04-29T01:16:37.819Z,26.00
2023-04-29T01:19:22.968Z,25.93
2023-04-29T01:21:49.135Z,25.13
2023-04-29T01:24:10.867Z,26.53
2023-04-29T01:26:35.344Z,26.07
2023-04-29T01:29:39.917Z,25.43
2023-04-29T01:32:12.104Z,25.07
2023-04-29T01:34:53.625Z,24.83
2023-04-29T01:37:28.407Z,24.93
2023-04-29T01:40:37.741Z,25.15
2023-04-29T01:43:11.721Z,24.93
2023-04-29T01:45:42.278Z,25.93
2023-04-29T01:48:05.403Z,26.63
2023-04-29T01:50:27.218Z,24.87
2023-04-29T01:52:52.059Z,24.33
2023-04-29T01:55:15.408Z,26.53
2023-04-29T02:00:20.076Z,24.20
2023-04-29T02:02:46.453Z,27.10
2023-04-29T02:05:22.554Z,25.70
2023-04-29T02:07:51.096Z,26.53
2023-04-29T02:10:13.335Z,24.83
2023-04-29T02:12:36.983Z,23.73
2023-04-29T02:15:00.334Z,24.77
2023-04-29T02:17:22.077Z,24.70
2023-04-29T02:19:43.715Z,26.67
2023-04-29T02:22:06.220Z,23.70
2023-04-29T02:24:27.886Z,24.37
2023-04-29T02:26:49.549Z,24.27
2023-04-29T02:29:11.387Z,24.03
2023-04-29T02:31:33.915Z,23.17
2023-04-29T02:33:55.815Z,22.37
2023-04-29T02:36:18.286Z,22.87
2023-04-29T02:38:39.961Z,22.10
2023-04-29T02:41:01.658Z,23.43
2023-04-29T02:43:23.392Z,22.27
2023-04-29T02:45:45.160Z,22.77
2023-04-29T02:48:07.649Z,23.00
2023-04-29T02:50:29.387Z,23.07
2023-04-29T02:52:51.155Z,21.77
2023-04-29T02:55:13.974Z,21.23
2023-04-29T02:57:35.606Z,21.83
2023-04-29T02:59:57.401Z,22.53
2023-04-29T03:02:19.084Z,22.53
2023-04-29T03:04:44.359Z,20.97
2023-04-29T03:07:07.910Z,21.00
2023-04-29T03:09:29.531Z,22.10
2023-04-29T03:11:51.714Z,22.40
2023-04-29T03:14:13.406Z,21.10
2023-04-29T03:16:35.645Z,22.10
2023-04-29T03:18:58.016Z,23.33
2023-04-29T03:21:19.707Z,22.00
2023-04-29T03:23:41.477Z,23.90
2023-04-29T03:26:07.371Z,22.67
2023-04-29T03:28:29.007Z,21.63
2023-04-29T03:30:50.726Z,23.17
2023-04-29T03:33:13.189Z,23.17
2023-04-29T03:35:34.816Z,21.27
2023-04-29T03:38:15.199Z,22.63
2023-04-29T03:40:37.966Z,21.60
2023-04-29T03:43:00.834Z,21.63
2023-04-29T03:45:22.447Z,22.97
2023-04-29T03:47:44.429Z,21.63
2023-04-29T03:50:08.629Z,21.63
2023-04-29T03:52:30.526Z,21.70
2023-04-29T03:54:57.169Z,23.43
2023-04-29T03:57:18.955Z,22.30
2023-04-29T03:59:40.857Z,22.67
2023-04-29T04:02:02.594Z,23.33
2023-04-29T04:04:25.197Z,23.83
2023-04-29T04:06:51.581Z,22.90
2023-04-29T04:09:15.404Z,22.07
2023-04-29T04:11:37.076Z,21.93
2023-04-29T04:13:59.427Z,22.27
2023-04-29T04:16:21.113Z,23.17
2023-04-29T04:18:42.898Z,22.73
2023-04-29T04:21:10.700Z,23.10
2023-04-29T04:23:33.989Z,23.47
2023-04-29T04:25:58.296Z,22.63
2023-04-29T04:28:38.670Z,24.10
2023-04-29T04:31:20.677Z,23.53
2023-04-29T04:33:42.618Z,23.40
2023-04-29T04:36:04.719Z,23.27
2023-04-29T04:38:27.766Z,23.23
2023-04-29T04:40:49.985Z,22.23
2023-04-29T04:43:20.518Z,23.30
2023-04-29T04:45:43.267Z,23.30
2023-04-29T04:48:05.240Z,22.10
2023-04-29T04:50:30.296Z,24.70
2023-04-29T04:52:54.242Z,23.47
2023-04-29T04:55:33.714Z,22.70
2023-04-29T04:57:55.800Z,22.57
2023-04-29T05:00:17.959Z,21.47
2023-04-29T05:02:40.188Z,20.97
2023-04-29T05:05:01.953Z,21.50
2023-04-29T05:07:26.785Z,21.63
2023-04-29T05:09:55.989Z,21.67
2023-04-29T05:12:17.689Z,22.50
2023-04-29T05:14:39.307Z,22.30
2023-04-29T05:17:01.114Z,21.77
2023-04-29T05:19:22.831Z,20.67
2023-04-29T05:21:44.662Z,22.07
2023-04-29T05:24:07.383Z,21.43
2023-04-29T05:26:29.301Z,20.90
2023-04-29T05:28:55.405Z,20.70
2023-04-29T05:31:17.404Z,21.43
2023-04-29T05:33:39.071Z,20.97
2023-04-29T05:36:00.939Z,19.53
2023-04-29T05:38:28.773Z,20.23
2023-04-29T05:40:59.200Z,21.10
2023-04-29T05:43:39.610Z,20.73
2023-04-29T05:46:01.583Z,19.60
2023-04-29T05:48:23.689Z,20.07
2023-04-29T05:50:45.777Z,18.97
2023-04-29T05:53:07.815Z,19.80
2023-04-29T05:55:29.614Z,20.13
2023-04-29T05:57:51.266Z,18.77
2023-04-29T06:00:13.639Z,20.03
2023-04-29T06:02:39.434Z,19.10
2023-04-29T06:05:04.596Z,20.53
2023-04-29T06:07:35.075Z,19.13
2023-04-29T06:10:06.827Z,19.03
2023-04-29T06:12:28.591Z,18.73
2023-04-29T06:14:51.518Z,18.33
2023-04-29T06:17:13.197Z,19.30
2023-04-29T06:19:35.013Z,17.30
2023-04-29T06:21:57.175Z,18.37
2023-04-29T06:24:18.938Z,16.80
2023-04-29T06:26:40.991Z,16.13
2023-04-29T06:29:02.829Z,18.30
2023-04-29T06:31:24.589Z,19.33
2023-04-29T06:33:49.141Z,17.08
2023-04-29T06:36:11.102Z,16.83
2023-04-29T06:38:50.846Z,18.40
2023-04-29T06:41:36.861Z,17.15
2023-04-29T06:44:01.852Z,17.70
2023-04-29T06:46:34.267Z,17.60
2023-04-29T06:48:59.639Z,16.90
2023-04-29T06:51:21.473Z,17.70
2023-04-29T06:53:43.074Z,18.17
2023-04-29T06:56:06.119Z,17.43
2023-04-29T06:58:27.780Z,18.17
2023-04-29T07:00:51.140Z,16.90
2023-04-29T07:03:13.726Z,18.20
2023-04-29T07:05:35.461Z,17.27
2023-04-29T07:07:57.667Z,17.60
2023-04-29T07:10:20.339Z,18.23
2023-04-29T07:12:42.073Z,18.17
2023-04-29T07:15:04.088Z,17.57
2023-04-29T07:17:25.784Z,16.97
2023-04-29T07:19:47.670Z,17.13
2023-04-29T07:22:09.499Z,17.07
2023-04-29T07:24:31.116Z,17.30
2023-04-29T07:26:52.916Z,16.60
2023-04-29T07:29:14.651Z,17.63
2023-04-29T07:31:38.196Z,17.97
2023-04-29T07:34:00.306Z,17.83
2023-04-29T07:36:22.580Z,17.20
2023-04-29T07:38:44.259Z,16.87
2023-04-29T07:41:06.090Z,16.40
2023-04-29T07:43:27.979Z,17.27
2023-04-29T07:45:49.824Z,17.83
2023-04-29T07:48:11.589Z,16.53
2023-04-29T07:50:37.289Z,17.87
2023-04-29T07:53:00.458Z,18.23
2023-04-29T07:55:22.282Z,17.23
2023-04-29T07:57:44.038Z,15.53
2023-04-29T08:00:07.635Z,18.57
2023-04-29T08:02:36.744Z,16.90
2023-04-29T08:04:59.335Z,16.53
2023-04-29T08:07:21.375Z,17.20
2023-04-29T08:09:43.119Z,16.80
2023-04-29T08:12:05.861Z,17.03
2023-04-29T08:14:28.118Z,17.23
2023-04-29T08:16:50.052Z,17.43
2023-04-29T08:19:11.819Z,16.17
2023-04-29T08:21:34.843Z,16.70
2023-04-29T08:23:56.722Z,15.27
2023-04-29T08:26:18.424Z,15.67
2023-04-29T08:28:40.442Z,15.33
2023-04-29T08:31:02.317Z,15.57
2023-04-29T08:33:24.176Z,14.97
2023-04-29T08:35:45.989Z,13.60
2023-04-29T08:38:09.310Z,14.87
2023-04-29T08:40:31.768Z,14.00
2023-04-29T08:42:54.663Z,14.00
2023-04-29T08:45:22.918Z,14.07
2023-04-29T08:47:45.736Z,13.90
2023-04-29T08:50:09.423Z,13.50
2023-04-29T08:52:32.929Z,13.35
2023-04-29T08:54:54.944Z,12.47
2023-04-29T08:57:17.404Z,14.17
2023-04-29T08:59:39.225Z,14.80
2023-04-29T09:02:01.033Z,14.47
2023-04-29T09:04:46.326Z,13.40
2023-04-29T09:07:11.295Z,13.43
2023-04-29T09:09:34.173Z,13.47
2023-04-29T09:11:56.024Z,13.23
2023-04-29T09:14:19.418Z,13.43
2023-04-29T09:16:41.422Z,13.53
2023-04-29T09:19:03.269Z,13.20
2023-04-29T09:21:28.335Z,13.73
2023-04-29T09:23:53.669Z,12.33
2023-04-29T09:26:16.685Z,11.20
2023-04-29T09:28:41.205Z,12.57
2023-04-29T09:33:31.464Z,12.07
2023-04-29T09:35:53.309Z,12.37
2023-04-29T09:38:16.531Z,12.57
2023-04-29T09:40:56.752Z,11.97
2023-04-29T09:43:21.535Z,11.60
2023-04-29T09:45:47.427Z,12.10
2023-04-29T09:48:11.551Z,11.63
2023-04-29T09:50:33.759Z,12.50
2023-04-29T09:52:55.883Z,11.10
2023-04-29T09:55:17.989Z,11.23
2023-04-29T09:57:45.177Z,11.27
2023-04-29T10:00:08.257Z,10.97
2023-04-29T10:02:35.558Z,11.30
2023-04-29T10:04:58.641Z,10.30
2023-04-29T10:07:21.579Z,11.33
2023-04-29T10:09:47.307Z,11.43
2023-04-29T10:12:09.797Z,10.50
2023-04-29T10:14:44.915Z,10.47
2023-04-29T10:18:13.195Z,11.27
2023-04-29T10:20:41.201Z,9.37
2023-04-29T10:23:04.317Z,9.57
2023-04-29T10:25:28.218Z,9.53
2023-04-29T10:27:53.656Z,9.27
2023-04-29T10:30:18.329Z,8.60
2023-04-29T10:35:15.497Z,9.70
2023-04-29T10:37:38.346Z,9.53
2023-04-29T10:40:28.192Z,9.20
2023-04-29T10:42:53.009Z,9.03
2023-04-29T10:45:32.766Z,9.20
2023-04-29T10:48:06.710Z,9.57
2023-04-29T10:50:29.625Z,9.47
2023-04-29T10:52:52.704Z,8.90
2023-04-29T10:55:14.294Z,9.20
2023-04-29T10:57:36.124Z,8.97
2023-04-29T10:59:57.682Z,8.77
2023-04-29T11:02:20.897Z,9.80
2023-04-29T11:05:09.517Z,9.73
2023-04-29T11:07:31.216Z,8.60
2023-04-29T11:09:53.007Z,8.70
2023-04-29T11:12:21.338Z,9.53
2023-04-29T11:14:50.311Z,9.07
2023-04-29T11:17:17.896Z,8.93
2023-04-29T11:19:50.355Z,7.50
2023-04-29T11:22:18.002Z,8.43
2023-04-29T11:25:09.630Z,8.37
2023-04-29T11:27:33.931Z,8.13
2023-04-29T11:29:58.848Z,7.75
2023-04-29T11:32:23.171Z,7.40
2023-04-29T11:34:44.986Z,7.78
2023-04-29T11:37:06.698Z,7.73
2023-04-29T11:39:28.487Z,7.97
2023-04-29T11:41:52.510Z,8.10
2023-04-29T11:44:14.387Z,7.93
2023-04-29T11:46:36.200Z,7.57
2023-04-29T11:49:00.151Z,7.50
2023-04-29T11:51:22.542Z,7.60
2023-04-29T11:53:44.981Z,7.80
2023-04-29T11:56:08.812Z,7.70
2023-04-29T11:58:30.571Z,7.75
2023-04-29T12:00:52.201Z,7.17
2023-04-29T12:03:18.772Z,7.27
2023-04-29T12:05:41.550Z,6.83
2023-04-29T12:08:03.249Z,6.77
2023-04-29T12:10:24.852Z,6.80
2023-04-29T12:12:47.419Z,6.70
2023-04-29T12:15:10.772Z,6.87
2023-04-29T12:17:33.151Z,7.13
2023-04-29T12:19:55.140Z,6.93
2023-04-29T12:22:16.796Z,7.70
2023-04-29T12:24:41.065Z,7.80
2023-04-29T12:27:03.489Z,7.68
2023-04-29T12:29:26.652Z,6.93
2023-04-29T12:31:48.467Z,7.13
2023-04-29T12:34:10.504Z,6.60
2023-04-29T12:36:34.682Z,6.87
2023-04-29T12:38:56.453Z,6.78
2023-04-29T12:41:18.796Z,6.47
2023-04-29T12:43:42.469Z,7.00
2023-04-29T12:46:09.114Z,6.40
2023-04-29T12:48:33.381Z,6.47
2023-04-29T12:50:58.520Z,6.33
2023-04-29T12:53:20.162Z,5.97
2023-04-29T12:55:42.676Z,6.33
2023-04-29T12:58:05.525Z,6.40
2023-04-29T13:00:27.233Z,5.83
2023-04-29T13:02:49.026Z,5.50
2023-04-29T13:05:12.266Z,5.10
2023-04-29T13:07:34.029Z,5.50
2023-04-29T13:09:55.904Z,4.93
2023-04-29T13:12:17.891Z,5.33
2023-04-29T13:14:39.579Z,5.43
2023-04-29T13:17:01.270Z,4.57
2023-04-29T13:24:10.422Z,4.40
2023-04-29T13:26:32.235Z,4.30
2023-04-29T13:28:53.992Z,4.03
2023-04-29T13:31:15.789Z,4.37
2023-04-29T13:33:40.113Z,4.60
2023-04-29T13:36:02.376Z,4.95
2023-04-29T13:38:23.958Z,5.10
2023-04-29T13:40:47.101Z,4.60
2023-04-29T13:45:39.556Z,4.67
2023-04-29T13:48:12.611Z,5.00
2023-04-29T14:01:05.366Z,5.88
2023-04-29T14:03:24.532Z,5.73
2023-04-29T14:05:46.442Z,6.17
2023-04-29T14:08:08.167Z,5.70
2023-04-29T14:10:30.046Z,6.10
2023-04-29T14:12:51.725Z,6.13
2023-04-29T14:15:13.664Z,5.23
2023-04-29T14:17:36.446Z,5.50
2023-04-29T14:19:58.069Z,5.00
2023-04-29T14:22:19.650Z,5.50
2023-04-29T14:24:41.359Z,6.13
2023-04-29T14:27:03.228Z,5.97
2023-04-29T14:29:25.618Z,6.33
2023-04-29T14:31:47.545Z,5.60
2023-04-29T14:34:09.705Z,5.00
2023-04-29T14:36:34.771Z,4.97
2023-04-29T14:38:56.401Z,5.50
2023-04-29T14:41:18.136Z,5.63
2023-04-29T14:43:41.398Z,5.90
2023-04-29T14:46:04.148Z,6.13
2023-04-29T14:48:25.760Z,5.70
2023-04-29T14:50:47.368Z,6.70
2023-04-29T14:53:10.259Z,6.60
2023-04-29T14:55:31.842Z,5.50
2023-04-29T14:57:53.491Z,5.20
2023-04-29T15:00:15.843Z,5.72
2023-04-29T15:02:37.728Z,5.33
2023-04-29T15:04:59.553Z,5.40
2023-04-29T15:07:22.700Z,5.50
2023-04-29T15:09:44.450Z,5.03
2023-04-29T15:12:06.439Z,5.27
2023-04-29T15:14:28.078Z,5.53
2023-04-29T15:16:49.844Z,5.57
2023-04-29T15:19:11.556Z,5.03
2023-04-29T15:21:33.200Z,5.60
2023-04-29T15:23:54.876Z,5.57
2023-04-29T15:26:16.585Z,5.10
2023-04-29T15:28:38.230Z,5.60
2023-04-29T15:31:01.799Z,5.60
2023-04-29T15:33:23.793Z,5.32
2023-04-29T15:35:45.461Z,5.37
2023-04-29T15:38:07.839Z,6.00
2023-04-29T15:40:29.562Z,6.30
2023-04-29T15:42:51.175Z,6.67
2023-04-29T15:45:12.899Z,5.53
2023-04-29T15:47:35.256Z,5.40
2023-04-29T15:49:56.952Z,5.07
2023-04-29T15:52:18.587Z,5.40
2023-04-29T15:54:41.740Z,6.20
2023-04-29T15:57:04.166Z,5.87
2023-04-29T15:59:25.787Z,5.30
2023-04-29T16:01:47.503Z,5.47
2023-04-29T16:04:09.198Z,5.30
2023-04-29T16:06:30.968Z,4.87
2023-04-29T16:08:53.803Z,5.27
2023-04-29T16:11:15.630Z,5.00
2023-04-29T16:13:37.476Z,4.37
2023-04-29T16:15:59.350Z,5.40
2023-04-29T16:18:21.013Z,5.60
2023-04-29T16:20:43.088Z,5.80
2023-04-29T16:23:04.758Z,5.03
2023-04-29T16:25:26.398Z,4.93
2023-04-29T16:27:48.025Z,5.87
2023-04-29T16:30:10.161Z,5.87
2023-04-29T16:32:33.432Z,5.23
2023-04-29T16:34:55.291Z,5.40
2023-04-29T16:37:17.131Z,5.33
2023-04-29T16:39:39.877Z,5.47
2023-04-29T16:42:01.491Z,6.07
2023-04-29T16:44:23.062Z,6.30
2023-04-29T16:46:45.184Z,5.87
2023-04-29T16:49:07.038Z,6.57
2023-04-29T16:51:29.350Z,6.20
2023-04-29T16:53:53.064Z,6.37
2023-04-29T16:56:14.859Z,6.45
2023-04-29T16:58:37.305Z,6.57
2023-04-29T17:00:59.458Z,7.20
2023-04-29T17:03:21.999Z,7.07
2023-04-29T17:05:44.004Z,7.50
2023-04-29T17:08:06.167Z,6.03
2023-04-29T17:10:27.968Z,6.57
2023-04-29T17:12:49.784Z,6.00
2023-04-29T17:15:12.016Z,6.40
2023-04-29T17:17:33.769Z,6.33
2023-04-29T17:19:56.009Z,6.63
2023-04-29T17:22:18.072Z,6.90
2023-04-29T17:24:39.768Z,6.57
2023-04-29T17:27:01.541Z,6.80
2023-04-29T17:29:23.247Z,6.27
2023-04-29T17:31:45.349Z,5.93
2023-04-29T17:34:18.342Z,7.83
2023-04-29T17:36:40.148Z,8.27
2023-04-29T17:39:01.775Z,7.93
2023-04-29T17:41:23.501Z,7.20
2023-04-29T17:43:45.231Z,7.23
2023-04-29T17:46:06.968Z,7.60
2023-04-29T17:48:28.751Z,6.60
2023-04-29T17:50:50.590Z,7.10
2023-04-29T17:53:13.532Z,7.23
2023-04-29T17:55:39.637Z,6.93
2023-04-29T17:58:01.638Z,6.80
2023-04-29T18:00:23.565Z,7.37
2023-04-29T18:02:45.318Z,7.20
2023-04-29T18:05:07.444Z,9.07
2023-04-29T18:07:29.139Z,9.20
2023-04-29T18:09:51.063Z,9.13
2023-04-29T18:12:13.717Z,7.90
2023-04-29T18:14:35.440Z,7.73
2023-04-29T18:17:01.148Z,6.83
2023-04-29T18:19:23.006Z,7.90
2023-04-29T18:21:44.698Z,7.70
2023-04-29T18:24:06.977Z,8.30
2023-04-29T18:26:29.379Z,7.77
2023-04-29T18:28:51.360Z,7.47
2023-04-29T18:31:15.622Z,8.27
2023-04-29T18:33:37.631Z,8.10
2023-04-29T18:35:59.268Z,8.03
2023-04-29T18:38:21.811Z,8.40
2023-04-29T18:40:44.167Z,7.97
2023-04-29T18:43:05.928Z,8.40
2023-04-29T18:45:27.815Z,8.43
2023-04-29T18:47:49.789Z,8.47
2023-04-29T18:50:11.844Z,8.70
2023-04-29T18:52:33.621Z,9.23
2023-04-29T18:54:55.452Z,8.63
2023-04-29T18:57:17.235Z,8.60
2023-04-29T18:59:39.342Z,8.30
2023-04-29T19:02:01.243Z,7.47
2023-04-29T19:04:23.068Z,5.80
2023-04-29T19:06:45.070Z,5.10
2023-04-29T19:09:07.129Z,5.03
2023-04-29T19:11:28.957Z,5.30
2023-04-29T19:13:50.807Z,4.47
2023-04-29T19:16:12.433Z,4.10
2023-04-29T19:18:34.099Z,3.70
2023-04-29T19:20:56.154Z,3.57
2023-04-29T19:23:18.557Z,3.00
2023-04-29T19:25:40.293Z,3.57
2023-04-29T19:28:01.960Z,3.10
2023-04-29T19:30:23.709Z,3.33
2023-04-29T19:32:46.499Z,3.37
2023-04-29T19:35:08.634Z,3.30
2023-04-29T19:37:30.314Z,3.60
2023-04-29T19:39:52.811Z,3.37
2023-04-29T19:42:14.550Z,3.07
2023-04-29T19:44:36.229Z,3.70
2023-04-29T19:46:58.276Z,3.77
2023-04-29T19:49:20.835Z,3.80
2023-04-29T19:51:42.602Z,4.63
2023-04-29T19:54:04.316Z,4.37
2023-04-29T19:56:25.962Z,3.77
2023-04-29T19:58:48.236Z,4.00
2023-04-29T20:01:10.004Z,3.83
2023-04-29T20:03:32.873Z,3.47
2023-04-29T20:05:55.102Z,3.70
2023-04-29T20:08:16.827Z,4.30
2023-04-29T20:10:38.560Z,5.13
2023-04-29T20:13:01.046Z,6.07
2023-04-29T20:15:22.766Z,5.90
2023-04-29T20:17:44.452Z,4.90
2023-04-29T20:20:08.984Z,5.27
2023-04-29T20:24:52.531Z,4.03
2023-04-29T20:27:14.226Z,3.80
2023-04-29T20:29:37.442Z,3.77
2023-04-29T20:31:59.319Z,3.80
2023-04-29T20:34:21.163Z,4.10
2023-04-29T20:36:42.895Z,3.83
2023-04-29T20:39:05.493Z,3.80
2023-04-29T20:41:29.021Z,4.00
2023-04-29T20:43:50.869Z,3.50
2023-04-29T20:46:13.668Z,3.77
2023-04-29T20:48:35.370Z,4.30
2023-04-29T20:50:57.036Z,4.37
2023-04-29T20:53:18.754Z,4.63
2023-04-29T20:55:40.394Z,4.73
2023-04-29T20:58:02.130Z,4.30
2023-04-29T21:00:23.817Z,4.43
2023-04-29T21:02:46.116Z,4.40
2023-04-29T21:05:10.143Z,4.30
2023-04-29T21:07:32.106Z,4.63
2023-04-29T21:09:54.356Z,4.73
2023-04-29T21:12:16.245Z,4.70
2023-04-29T21:14:39.002Z,4.50
2023-04-29T21:17:01.522Z,4.67
2023-04-29T21:19:23.210Z,5.57
2023-04-29T21:21:44.938Z,5.20
2023-04-29T21:24:06.856Z,5.50
2023-04-29T21:26:28.968Z,5.50
2023-04-29T21:28:50.645Z,5.10
2023-04-29T21:31:16.222Z,4.93
2023-04-29T21:33:39.812Z,5.37
2023-04-29T21:36:01.591Z,5.30
2023-04-29T21:38:23.307Z,5.27
2023-04-29T21:40:47.929Z,5.50
2023-04-29T21:43:10.805Z,5.13
2023-04-29T21:45:33.555Z,5.05
2023-04-29T21:48:07.924Z,4.83
2023-04-29T21:50:29.709Z,6.22
2023-04-29T21:52:51.446Z,6.20
2023-04-29T21:55:13.392Z,5.87
2023-04-29T21:57:44.374Z,5.50
2023-04-29T22:00:19.406Z,6.10
2023-04-29T22:02:43.365Z,5.75
2023-04-29T22:05:05.553Z,6.18
2023-04-29T22:07:27.405Z,5.73
2023-04-29T22:09:52.271Z,6.30
2023-04-29T22:12:14.183Z,5.97
2023-04-29T22:14:35.859Z,6.20
2023-04-29T22:16:57.668Z,6.53
2023-04-29T22:19:19.313Z,5.43
2023-04-29T22:21:42.983Z,7.00
2023-04-29T22:24:05.430Z,6.68
2023-04-29T22:26:27.075Z,6.47
2023-04-29T22:28:48.790Z,6.77
2023-04-29T22:31:10.625Z,6.27
2023-04-29T22:33:32.279Z,6.70
2023-04-29T22:35:53.939Z,6.57
2023-04-29T22:38:15.846Z,6.40
2023-04-29T22:40:37.692Z,7.23
2023-04-29T22:42:59.386Z,7.40
2023-04-29T22:45:21.134Z,7.67
2023-04-29T22:47:43.322Z,7.17
2023-04-29T22:50:06.192Z,7.60
2023-04-29T22:52:27.926Z,7.90
2023-04-29T22:54:49.597Z,8.17
2023-04-29T22:57:11.409Z,7.90
2023-04-29T22:59:33.228Z,7.97
2023-04-29T23:01:54.986Z,8.07
2023-04-29T23:04:16.899Z,8.60
2023-04-29T23:06:38.833Z,8.87
2023-04-29T23:09:00.784Z,8.73
2023-04-29T23:11:22.729Z,8.90
2023-04-29T23:13:44.724Z,9.63
2023-04-29T23:16:09.943Z,8.50
2023-04-29T23:18:32.421Z,9.00
2023-04-29T23:20:55.229Z,9.13
2023-04-29T23:23:17.286Z,9.43
2023-04-29T23:25:38.989Z,10.00
2023-04-29T23:28:00.708Z,9.40
2023-04-29T23:30:22.780Z,9.10
2023-04-29T23:32:44.743Z,9.07
2023-04-29T23:35:07.660Z,10.70
2023-04-29T23:37:29.519Z,9.23
2023-04-29T23:39:51.725Z,10.23
2023-04-29T23:42:13.446Z,10.63
2023-04-29T23:44:35.415Z,9.23
2023-04-29T23:46:57.285Z,9.27
2023-04-29T23:49:18.985Z,9.70
2023-04-29T23:51:40.648Z,8.47
2023-04-29T23:54:02.299Z,9.27
2023-04-29T23:56:24.744Z,10.03
2023-04-29T23:58:46.496Z,9.80
